Time;durP1;ratioP1;P1;durP2;ratioP2;P2;SDS_P1;SDS_P2;PMS_P1;PMS_P2;Temp;Humidity;BMP_temperature;BMP_pressure;BME280_temperature;BME280_humidity;BME280_pressure;Samples;Min_cycle;Max_cycle;Signal;HPM_P1;HPM_P2
2022/05/15 00:01:31;;;;;;;10.32;1.88;;;;;;;9.76;54.10;98438.88;5006342;28;20659;-75
2022/05/15 00:03:58;;;;;;;10.48;2.20;;;;;;;9.72;54.35;98446.03;5007768;28;20053;-75
2022/05/15 00:06:24;;;;;;;11.85;2.83;;;;;;;9.68;54.57;98440.41;5008567;28;20513;-75
2022/05/15 00:08:51;;;;;;;7.88;2.10;;;;;;;9.62;54.60;98438.84;5010156;28;20057;-75
2022/05/15 00:11:17;;;;;;;10.07;2.50;;;;;;;9.62;54.69;98441.59;5009186;28;20077;-74
2022/05/15 00:13:45;;;;;;;11.23;2.67;;;;;;;9.68;54.71;98440.41;5021859;28;20133;-75
2022/05/15 00:16:11;;;;;;;10.77;2.25;;;;;;;9.71;54.47;98442.53;5006450;28;20462;-75
2022/05/15 00:18:40;;;;;;;7.90;2.10;;;;;;;9.80;54.56;98431.69;5005470;28;20464;-75
2022/05/15 00:21:08;;;;;;;10.18;2.20;;;;;;;9.84;54.33;98437.38;5005398;28;20060;-75
2022/05/15 00:23:34;;;;;;;8.18;2.05;;;;;;;9.91;54.31;98435.84;5021687;28;20048;-75
2022/05/15 00:26:00;;;;;;;10.30;2.40;;;;;;;9.95;54.18;98435.25;5004219;28;20421;-75
2022/05/15 00:28:27;;;;;;;7.43;1.85;;;;;;;9.99;54.38;98436.25;5022998;28;20054;-75
2022/05/15 00:30:53;;;;;;;10.70;2.17;;;;;;;10.00;54.76;98444.16;5010448;28;20037;-75
2022/05/15 00:33:19;;;;;;;9.02;2.30;;;;;;;10.02;54.40;98441.09;5006518;28;20291;-72
2022/05/15 00:35:47;;;;;;;7.78;2.17;;;;;;;10.07;54.04;98443.75;5006564;28;20041;-73
2022/05/15 00:38:14;;;;;;;8.07;1.87;;;;;;;10.09;54.07;98430.59;4988813;28;20056;-71
2022/05/15 00:40:42;;;;;;;9.95;2.22;;;;;;;10.12;54.11;98431.88;5006319;28;20746;-72
2022/05/15 00:43:10;;;;;;;11.32;2.33;;;;;;;10.10;53.70;98437.66;5004796;28;20042;-71
2022/05/15 00:45:36;;;;;;;14.35;2.88;;;;;;;10.08;53.94;98434.44;5006348;28;20525;-71
2022/05/15 00:48:02;;;;;;;10.38;3.00;;;;;;;10.12;54.03;98435.44;5004930;28;20073;-72
2022/05/15 00:50:33;;;;;;;7.40;2.05;;;;;;;10.06;54.06;98436.63;5006590;28;20073;-72
2022/05/15 00:53:04;;;;;;;7.75;2.05;;;;;;;10.02;54.22;98427.44;5006886;28;20065;-72
2022/05/15 00:55:39;;;;;;;12.10;2.70;;;;;;;9.96;54.69;98432.19;5003795;28;20138;-72
2022/05/15 00:58:09;;;;;;;13.07;3.70;;;;;;;9.90;54.82;98430.69;5005142;28;20058;-72
2022/05/15 01:00:38;;;;;;;11.30;2.20;;;;;;;9.78;54.75;98421.06;5007228;28;20041;-71
2022/05/15 01:03:07;;;;;;;12.13;2.47;;;;;;;9.78;55.02;98425.75;5022434;28;20046;-71
2022/05/15 01:05:37;;;;;;;14.40;2.38;;;;;;;9.67;55.37;98421.59;5006349;28;20116;-71
2022/05/15 01:08:05;;;;;;;13.00;2.38;;;;;;;9.64;55.69;98431.19;5021246;28;20046;-71
2022/05/15 01:10:33;;;;;;;9.30;2.20;;;;;;;9.55;55.83;98419.34;5005667;28;20050;-71
2022/05/15 01:13:00;;;;;;;11.93;2.55;;;;;;;9.49;55.70;98424.09;5005745;28;20054;-71
2022/05/15 01:15:28;;;;;;;10.88;2.53;;;;;;;9.39;56.25;98422.38;4988593;28;20058;-72
2022/05/15 01:17:57;;;;;;;9.30;2.42;;;;;;;9.19;56.18;98397.06;5004259;28;20061;-72
2022/05/15 01:20:28;;;;;;;7.80;2.10;;;;;;;9.30;56.27;98418.72;5002961;28;20057;-72
2022/05/15 01:22:56;;;;;;;9.63;2.38;;;;;;;9.29;56.36;98420.63;5021345;28;20449;-72
2022/05/15 01:25:25;;;;;;;8.80;2.30;;;;;;;9.28;56.62;98420.94;5008544;28;20406;-72
2022/05/15 01:27:55;;;;;;;10.20;2.60;;;;;;;9.23;56.74;98416.38;4990603;28;20069;-71
2022/05/15 01:30:22;;;;;;;12.80;2.35;;;;;;;9.18;56.76;98419.97;4988822;28;20048;-72
2022/05/15 01:32:48;;;;;;;10.00;2.22;;;;;;;9.15;56.98;98417.06;4987240;28;20096;-72
2022/05/15 01:35:16;;;;;;;8.95;2.30;;;;;;;9.07;56.71;98416.63;5004559;28;20107;-71
2022/05/15 01:37:42;;;;;;;7.95;2.28;;;;;;;9.10;56.80;98419.88;5002528;28;20049;-72
2022/05/15 01:40:11;;;;;;;11.30;2.53;;;;;;;9.07;56.80;98427.53;5003507;28;20050;-72
2022/05/15 01:42:39;;;;;;;10.20;2.38;;;;;;;9.08;56.91;98425.63;5002596;28;20068;-71
2022/05/15 01:45:06;;;;;;;11.90;2.53;;;;;;;9.04;57.37;98430.03;5003267;28;20046;-72
2022/05/15 01:47:32;;;;;;;;;;;;;;;9.06;57.72;98427.84;5007208;28;20057;-72
2022/05/15 01:50:00;;;;;;;9.10;2.40;;;;;;;9.04;57.42;98419.97;5003557;28;19932;-72
2022/05/15 01:52:27;;;;;;;10.23;2.45;;;;;;;9.07;57.60;98429.47;5006699;28;20445;-71
2022/05/15 01:54:54;;;;;;;12.85;2.88;;;;;;;9.06;58.13;98422.41;5004298;28;20056;-73
2022/05/15 01:57:24;;;;;;;11.45;2.30;;;;;;;9.06;58.42;98425.91;5002438;28;20395;-71
2022/05/15 01:59:50;;;;;;;;;;;;;;;9.07;58.53;98424.81;4988396;28;20513;-72
2022/05/15 02:02:16;;;;;;;9.40;2.17;;;;;;;9.13;58.11;98430.16;5005927;28;19956;-71
2022/05/15 02:04:45;;;;;;;11.50;2.42;;;;;;;9.21;58.04;98427.59;4986942;28;20080;-72
2022/05/15 02:07:11;;;;;;;10.48;2.20;;;;;;;9.31;58.07;98420.31;5005331;28;20055;-72
2022/05/15 02:09:38;;;;;;;10.23;2.60;;;;;;;9.38;58.15;98425.38;4985359;28;20058;-73
2022/05/15 02:12:06;;;;;;;11.73;2.65;;;;;;;9.40;58.12;98424.00;5003611;28;20058;-75
2022/05/15 02:14:34;;;;;;;11.60;3.40;;;;;;;9.46;57.75;98420.03;5020464;28;20046;-75
2022/05/15 02:17:00;;;;;;;13.55;2.65;;;;;;;9.62;57.70;98425.22;4985768;28;20525;-75
2022/05/15 02:19:27;;;;;;;9.90;2.20;;;;;;;9.75;57.55;98426.31;5001662;28;20422;-75
2022/05/15 02:21:53;;;;;;;10.55;2.63;;;;;;;9.88;56.98;98432.91;5003589;28;20041;-75
2022/05/15 02:24:20;;;;;;;10.80;2.50;;;;;;;9.90;56.43;98426.03;4987256;28;20588;-75
2022/05/15 02:26:46;;;;;;;14.18;2.38;;;;;;;9.99;56.29;98420.69;5002564;28;20529;-75
2022/05/15 02:29:12;;;;;;;10.45;2.70;;;;;;;10.07;56.12;98428.16;5003621;28;20535;-74
2022/05/15 02:31:39;;;;;;;12.95;2.58;;;;;;;10.08;55.61;98429.75;5005508;28;20050;-76
2022/05/15 02:34:05;;;;;;;;;;;;;;;10.11;55.52;98422.88;5019924;28;20048;-75
2022/05/15 02:36:32;;;;;;;16.05;3.75;;;;;;;10.16;55.09;98425.50;5006261;28;19925;-74
2022/05/15 02:38:58;;;;;;;9.57;2.40;;;;;;;10.17;54.91;98427.13;5005071;28;20436;-75
2022/05/15 02:41:26;;;;;;;14.10;3.45;;;;;;;10.25;55.40;98419.34;5003059;28;20452;-75
2022/05/15 02:43:52;;;;;;;14.83;6.07;;;;;;;10.27;55.39;98420.63;5004815;28;20104;-75
2022/05/15 02:46:19;;;;;;;18.20;7.85;;;;;;;10.27;55.26;98423.34;5003419;28;20301;-75
2022/05/15 02:51:31;;;;;;;13.07;5.05;;;;;;;10.16;55.68;98419.25;5002823;28;20054;-76
2022/05/15 02:53:57;;;;;;;10.93;3.35;;;;;;;10.17;55.82;98423.59;5020632;28;20524;-75
2022/05/15 02:56:28;;;;;;;17.15;3.13;;;;;;;10.19;55.78;98427.63;5006591;28;20564;-75
2022/05/15 02:58:54;;;;;;;9.50;2.75;;;;;;;10.14;55.72;98429.66;5020365;28;20053;-75
2022/05/15 03:01:21;;;;;;;12.95;2.92;;;;;;;10.06;55.80;98423.81;5018394;28;20405;-75
2022/05/15 03:03:49;;;;;;;12.07;3.00;;;;;;;10.05;55.78;98424.09;5020244;28;20362;-75
2022/05/15 03:06:15;;;;;;;9.35;2.60;;;;;;;10.02;56.40;98430.16;5003312;28;20049;-74
2022/05/15 03:08:43;;;;;;;15.15;2.42;;;;;;;10.01;56.33;98429.38;5009121;28;20054;-76
2022/05/15 03:11:11;;;;;;;7.65;2.38;;;;;;;10.05;56.53;98429.56;4992061;28;20046;-76
2022/05/15 03:13:38;;;;;;;12.45;2.60;;;;;;;10.11;56.03;98433.81;5004019;28;20052;-75
2022/05/15 03:16:05;;;;;;;12.80;3.17;;;;;;;10.21;55.88;98428.13;5008110;28;20116;-75
2022/05/15 03:18:32;;;;;;;13.25;2.53;;;;;;;10.42;55.42;98424.16;5005055;28;20151;-75
2022/05/15 03:20:59;;;;;;;17.55;2.63;;;;;;;10.64;54.80;98426.94;5007562;28;20080;-75
2022/05/15 03:23:26;;;;;;;6.68;2.15;;;;;;;10.83;54.42;98422.41;5009988;28;20099;-72
2022/05/15 03:25:52;;;;;;;12.73;2.53;;;;;;;11.04;53.68;98429.03;5007875;28;20054;-72
2022/05/15 03:28:18;;;;;;;12.32;2.55;;;;;;;11.28;53.12;98435.28;5008348;28;20073;-72
2022/05/15 03:30:45;;;;;;;11.02;2.75;;;;;;;11.45;52.67;98431.81;5007756;28;20049;-72
2022/05/15 03:33:12;;;;;;;8.40;2.50;;;;;;;11.52;52.53;98439.59;5023982;28;20088;-72
2022/05/15 03:35:39;;;;;;;;;;;;;;;11.46;52.19;98434.25;5009251;28;20137;-73
2022/05/15 03:38:08;;;;;;;16.00;4.45;;;;;;;11.42;52.27;98438.75;5003167;28;19925;-72
2022/05/15 03:40:35;;;;;;;10.45;2.13;;;;;;;11.30;52.11;98439.31;5005970;28;20417;-72
2022/05/15 03:43:01;;;;;;;11.65;2.70;;;;;;;11.30;52.41;98427.56;5009225;28;20050;-72
2022/05/15 03:45:27;;;;;;;9.57;2.80;;;;;;;11.33;52.45;98432.41;5023168;28;20138;-72
2022/05/15 03:47:55;;;;;;;17.85;3.63;;;;;;;11.25;52.45;98428.50;5007579;28;20037;-72
2022/05/15 03:50:24;;;;;;;9.82;2.42;;;;;;;11.14;52.78;98429.88;5022260;28;20564;-73
2022/05/15 03:52:50;;;;;;;8.80;2.50;;;;;;;11.09;52.82;98428.09;5007236;28;20521;-73
2022/05/15 03:55:18;;;;;;;15.70;2.63;;;;;;;11.11;53.19;98431.31;5023207;28;20583;-71
2022/05/15 03:57:44;;;;;;;10.20;2.58;;;;;;;11.10;53.62;98437.09;5005784;28;20061;-71
2022/05/15 04:00:13;;;;;;;13.50;2.55;;;;;;;11.09;53.30;98428.09;4989180;28;20125;-72
2022/05/15 04:02:40;;;;;;;9.48;2.25;;;;;;;10.99;53.43;98422.88;5006334;28;20046;-72
2022/05/15 04:05:09;;;;;;;12.07;2.70;;;;;;;11.04;53.65;98437.22;4991420;28;20119;-72
2022/05/15 04:07:42;;;;;;;11.05;2.38;;;;;;;11.01;53.75;98437.84;5005113;28;20065;-72
2022/05/15 04:10:10;;;;;;;11.15;2.38;;;;;;;10.95;54.00;98436.34;4991106;28;20097;-72
2022/05/15 04:12:39;;;;;;;11.10;2.35;;;;;;;10.91;54.53;98436.16;5007207;28;20441;-72
2022/05/15 04:15:06;;;;;;;13.93;2.75;;;;;;;10.91;54.45;98427.94;4989781;28;20050;-72
2022/05/15 04:17:32;;;;;;;9.75;2.85;;;;;;;10.96;54.66;98434.44;5004912;28;20540;-73
2022/05/15 04:20:02;;;;;;;12.88;2.35;;;;;;;11.10;54.30;98442.56;5003794;28;20054;-73
2022/05/15 04:22:29;;;;;;;9.18;2.28;;;;;;;11.12;53.65;98434.84;5006932;28;20134;-72
2022/05/15 04:24:55;;;;;;;7.20;2.25;;;;;;;11.07;53.92;98439.34;5003952;28;20096;-72
2022/05/15 04:27:24;;;;;;;12.50;3.35;;;;;;;11.14;53.73;98438.91;4989655;28;20460;-73
2022/05/15 04:29:52;;;;;;;12.13;2.55;;;;;;;11.18;53.82;98431.69;5007185;28;20198;-72
2022/05/15 04:32:18;;;;;;;10.73;2.50;;;;;;;11.18;54.07;98431.69;4990613;28;20110;-70
2022/05/15 04:34:44;;;;;;;13.60;2.67;;;;;;;11.17;54.02;98434.75;5023090;28;20048;-73
2022/05/15 04:37:10;;;;;;;15.65;2.33;;;;;;;11.16;53.97;98433.09;5009325;28;20080;-72
2022/05/15 04:39:36;;;;;;;10.25;2.92;;;;;;;11.17;54.05;98435.53;5002921;28;20073;-72
2022/05/15 04:42:03;;;;;;;12.43;2.60;;;;;;;11.25;53.92;98435.91;5007188;28;20050;-72
2022/05/15 04:44:29;;;;;;;12.90;2.67;;;;;;;11.41;53.70;98436.31;5006878;28;20073;-71
2022/05/15 04:46:57;;;;;;;16.77;2.95;;;;;;;11.44;53.60;98431.03;5009229;28;20046;-73
2022/05/15 04:49:23;;;;;;;;;;;;;;;11.47;53.88;98432.31;5007975;28;20042;-72
2022/05/15 04:51:49;;;;;;;16.48;2.78;;;;;;;11.57;53.27;98425.78;5006786;28;19925;-75
2022/05/15 04:54:15;;;;;;;17.27;2.63;;;;;;;11.63;53.18;98429.97;5003577;28;20044;-75
2022/05/15 04:56:41;;;;;;;9.18;2.25;;;;;;;11.65;53.46;98433.22;5007047;28;20068;-75
2022/05/15 04:59:07;;;;;;;13.50;3.40;;;;;;;11.62;53.43;98431.09;5003627;28;20100;-75
2022/05/15 05:01:34;;;;;;;14.60;2.60;;;;;;;11.54;53.35;98437.34;5006362;28;20429;-75
2022/05/15 05:04:01;;;;;;;13.73;2.58;;;;;;;11.56;53.25;98435.13;5003535;28;20402;-76
2022/05/15 05:06:28;;;;;;;16.27;2.88;;;;;;;11.69;53.12;98419.72;5007670;28;20133;-76
2022/05/15 05:08:55;;;;;;;12.18;2.80;;;;;;;11.84;53.01;98432.16;5021994;28;20604;-75
2022/05/15 05:11:23;;;;;;;8.60;2.53;;;;;;;11.95;52.71;98424.47;5002038;28;20061;-76
2022/05/15 05:13:49;;;;;;;8.45;2.28;;;;;;;12.05;52.53;98422.28;5006139;28;20958;-76
2022/05/15 05:16:16;;;;;;;15.77;2.80;;;;;;;12.14;52.63;98416.00;5007341;28;20053;-76
2022/05/15 05:18:42;;;;;;;13.82;2.70;;;;;;;12.26;52.35;98420.88;5007447;28;20304;-72
2022/05/15 05:21:09;;;;;;;11.95;2.65;;;;;;;12.38;51.12;98422.97;5008605;28;20512;-72
2022/05/15 05:23:35;;;;;;;19.58;2.55;;;;;;;12.33;50.96;98423.94;5006580;28;20513;-72
2022/05/15 05:26:03;;;;;;;15.00;2.55;;;;;;;12.42;51.28;98426.69;5005967;28;20046;-72
2022/05/15 05:28:30;;;;;;;18.77;3.13;;;;;;;12.46;51.18;98430.41;5003078;28;20052;-72
2022/05/15 05:30:57;;;;;;;36.15;13.75;;;;;;;12.53;50.94;98421.69;5003529;28;20485;-72
2022/05/15 05:33:23;;;;;;;44.30;14.02;;;;;;;12.66;50.88;98418.00;5003368;28;20054;-71
2022/05/15 05:35:50;;;;;;;18.50;7.00;;;;;;;12.79;50.19;98418.16;5023260;28;20080;-72
2022/05/15 05:38:17;;;;;;;21.00;5.25;;;;;;;12.91;49.79;98421.06;5007571;28;20060;-71
2022/05/15 05:40:44;;;;;;;17.52;3.55;;;;;;;13.15;49.09;98415.06;5006898;28;20054;-72
2022/05/15 05:43:10;;;;;;;13.95;2.97;;;;;;;13.34;48.80;98422.13;5006445;28;20046;-72
2022/05/15 05:45:37;;;;;;;11.30;2.40;;;;;;;13.53;47.80;98415.47;5009084;28;20095;-72
2022/05/15 05:48:03;;;;;;;20.17;3.33;;;;;;;13.80;47.44;98410.69;4989991;28;20141;-72
2022/05/15 05:50:30;;;;;;;13.23;2.40;;;;;;;14.07;46.54;98417.66;5005235;28;20077;-72
2022/05/15 05:52:57;;;;;;;16.80;2.47;;;;;;;14.24;45.18;98415.94;5005296;28;20804;-72
2022/05/15 05:55:26;;;;;;;9.57;2.00;;;;;;;14.23;44.99;98411.56;5006824;28;20053;-72
2022/05/15 05:57:53;;;;;;;11.65;2.90;;;;;;;14.31;45.22;98427.22;5005412;28;20045;-75
2022/05/15 06:00:24;;;;;;;11.38;2.33;;;;;;;14.32;44.88;98426.06;5004878;28;20101;-72
2022/05/15 06:02:51;;;;;;;15.75;2.50;;;;;;;14.38;45.20;98432.19;5007751;28;20065;-75
2022/05/15 06:05:17;;;;;;;12.10;3.00;;;;;;;14.36;44.98;98412.44;5004883;28;20492;-75
2022/05/15 06:07:44;;;;;;;15.52;2.35;;;;;;;14.36;45.69;98424.28;5004107;28;20052;-75
2022/05/15 06:10:12;;;;;;;9.98;2.30;;;;;;;14.39;45.01;98412.59;5002596;28;20072;-75
2022/05/15 06:12:40;;;;;;;12.30;2.53;;;;;;;14.81;44.76;98420.06;5005065;28;20173;-74
2022/05/15 06:15:09;;;;;;;10.15;2.28;;;;;;;15.21;43.82;98415.19;4987805;28;20073;-76
2022/05/15 06:17:35;;;;;;;15.85;2.47;;;;;;;15.42;42.46;98424.16;4986467;28;20058;-75
2022/05/15 06:20:05;;;;;;;15.70;2.65;;;;;;;15.48;42.09;98429.47;4987291;28;20639;-75
2022/05/15 06:22:31;;;;;;;8.68;2.20;;;;;;;15.41;41.29;98430.03;4657193;28;10000676;-75
2022/05/15 06:24:57;;;;;;;13.88;2.22;;;;;;;15.46;41.40;98421.56;4998545;28;20048;-75
2022/05/15 06:27:23;;;;;;;7.88;1.95;;;;;;;15.58;41.50;98418.81;5002534;28;20525;-72
2022/05/15 06:29:55;;;;;;;29.80;3.15;;;;;;;15.70;40.81;98426.28;4997784;28;20494;-72
2022/05/15 06:32:21;;;;;;;14.07;2.53;;;;;;;15.76;40.86;98426.88;4999282;28;20042;-72
2022/05/15 06:34:47;;;;;;;9.32;2.17;;;;;;;15.77;39.92;98430.44;4999097;28;20042;-73
2022/05/15 06:37:13;;;;;;;13.15;2.17;;;;;;;15.50;39.81;98435.44;5004011;28;20704;-73
2022/05/15 06:39:39;;;;;;;12.20;2.40;;;;;;;15.10;40.91;98423.84;5000722;28;20046;-72
2022/05/15 06:42:06;;;;;;;14.20;2.30;;;;;;;15.10;40.85;98426.59;4980686;28;20549;-72
2022/05/15 06:44:41;;;;;;;16.98;2.30;;;;;;;15.07;41.08;98421.00;4997121;28;20540;-72
2022/05/15 06:47:09;;;;;;;12.65;3.53;;;;;;;15.16;40.60;98416.19;5001248;28;20053;-75
2022/05/15 06:49:36;;;;;;;16.77;2.60;;;;;;;15.05;41.09;98424.06;5002686;28;20081;-76
2022/05/15 06:52:03;;;;;;;18.00;2.65;;;;;;;14.89;41.95;98416.44;5001685;28;20042;-76
2022/05/15 06:54:29;;;;;;;10.50;2.38;;;;;;;15.15;41.88;98415.41;5000168;28;20057;-76
2022/05/15 06:59:40;;;;;;;17.40;2.30;;;;;;;15.17;41.14;98415.88;5000706;28;20061;-76
2022/05/15 07:02:06;;;;;;;19.30;2.28;;;;;;;14.69;41.01;98409.78;5002328;28;20396;-75
2022/05/15 07:04:34;;;;;;;19.53;2.37;;;;;;;14.65;40.42;98419.03;4999312;28;20052;-76
2022/05/15 07:07:00;;;;;;;6.43;1.92;;;;;;;14.82;40.52;98410.66;5003762;28;20048;-75
2022/05/15 07:09:27;;;;;;;8.73;1.80;;;;;;;15.12;39.50;98410.56;5001325;28;20517;-76
2022/05/15 07:11:54;;;;;;;7.90;1.70;;;;;;;15.17;38.93;98396.59;5001680;28;20477;-75
2022/05/15 07:14:20;;;;;;;11.43;2.30;;;;;;;15.28;39.04;98409.91;5000086;28;20525;-75
2022/05/15 07:16:46;;;;;;;14.63;2.60;;;;;;;15.11;39.51;98410.91;4996796;28;20549;-76
2022/05/15 07:19:12;;;;;;;14.60;2.40;;;;;;;15.30;39.53;98407.66;4991445;28;20141;-75
2022/05/15 07:21:40;;;;;;;11.90;1.90;;;;;;;15.52;38.87;98403.66;5017369;28;20045;-76
2022/05/15 07:24:06;;;;;;;11.57;2.00;;;;;;;15.64;38.64;98396.56;5006502;28;20128;-75
2022/05/15 07:26:33;;;;;;;7.17;1.77;;;;;;;15.76;38.64;98396.56;5008356;28;20104;-75
2022/05/15 07:29:00;;;;;;;15.57;2.20;;;;;;;15.99;38.58;98391.44;5006410;28;20300;-75
2022/05/15 07:31:26;;;;;;;15.18;2.95;;;;;;;16.10;38.11;98397.28;5005028;28;20081;-75
2022/05/15 07:33:52;;;;;;;13.45;2.35;;;;;;;16.16;38.06;98384.88;5004115;28;20429;-75
2022/05/15 07:36:19;;;;;;;9.68;1.73;;;;;;;16.28;37.25;98395.06;5004140;28;20046;-75
2022/05/15 07:38:46;;;;;;;14.90;2.20;;;;;;;16.26;37.03;98394.63;5019664;28;20049;-75
2022/05/15 07:41:13;;;;;;;;;;;;;;;16.40;36.58;98391.47;4988880;28;20468;-75
2022/05/15 07:43:40;;;;;;;18.95;2.38;;;;;;;16.41;36.62;98387.56;5003189;28;19929;-75
2022/05/15 07:46:06;;;;;;;14.10;2.28;;;;;;;16.41;36.76;98390.31;5004245;28;20096;-75
2022/05/15 07:48:32;;;;;;;10.77;1.77;;;;;;;16.51;35.95;98391.78;5003897;28;20073;-75
2022/05/15 07:50:59;;;;;;;23.00;2.92;;;;;;;16.63;35.95;98393.75;5005814;28;20061;-74
2022/05/15 07:53:25;;;;;;;9.80;2.50;;;;;;;17.03;35.31;98386.59;5004141;28;20103;-74
2022/05/15 07:55:53;;;;;;;12.13;2.20;;;;;;;16.72;35.49;98386.09;5005704;28;20336;-74
2022/05/15 07:58:19;;;;;;;11.25;2.08;;;;;;;16.18;36.60;98394.75;5000164;28;20050;-74
2022/05/15 08:00:45;;;;;;;19.52;2.25;;;;;;;15.63;36.97;98395.75;5008589;28;20068;-74
2022/05/15 08:03:13;;;;;;;11.00;2.20;;;;;;;15.34;37.90;98386.53;5007907;28;20132;-74
2022/05/15 08:08:25;;;;;;;11.50;2.08;;;;;;;15.50;37.00;98385.88;4986196;28;20054;-74
2022/05/15 08:10:53;;;;;;;11.13;1.90;;;;;;;16.35;36.01;98393.66;4972946;28;20050;-75
2022/05/15 08:13:20;;;;;;;;;;;;;;;17.71;33.50;98381.19;4996880;28;20045;-74
2022/05/15 08:15:47;;;;;;;15.73;2.10;;;;;;;18.66;31.94;98384.94;5024785;28;19924;-74
2022/05/15 08:23:46;;;;;;;21.63;2.30;;;;;;;17.25;34.92;98390.72;5025994;28;20144;-74
2022/05/15 08:26:14;;;;;;;9.95;1.80;;;;;;;16.67;36.41;98394.63;5026571;28;20144;-74
2022/05/15 08:28:40;;;;;;;11.30;1.73;;;;;;;16.12;37.23;98389.47;5025656;28;20096;-75
2022/05/15 08:31:08;;;;;;;14.20;2.13;;;;;;;15.65;38.95;98389.91;5025409;28;20049;-74
2022/05/15 08:33:35;;;;;;;8.93;2.20;;;;;;;15.31;40.88;98390.75;5018583;28;20042;-75
2022/05/15 08:36:01;;;;;;;10.95;2.30;;;;;;;14.93;42.97;98385.50;4654596;28;10000413;-74
2022/05/15 08:38:27;;;;;;;22.88;2.67;;;;;;;14.63;44.73;98388.31;5004632;28;20228;-74
2022/05/15 08:41:00;;;;;;;21.80;2.85;;;;;;;14.32;47.64;98382.09;5002714;28;20054;-74
2022/05/15 08:43:41;;;;;;;14.70;2.50;;;;;;;14.02;48.44;98390.38;5002184;28;20053;-74
2022/05/15 08:46:21;;;;;;;19.63;2.67;;;;;;;13.78;50.00;98389.03;5000407;28;20073;-74
2022/05/15 08:48:48;;;;;;;32.90;3.92;;;;;;;13.72;51.14;98396.63;4997728;28;20263;-74
2022/05/15 08:51:14;;;;;;;13.95;2.65;;;;;;;13.77;50.76;98390.16;5011879;28;20153;-74
2022/05/15 08:53:43;;;;;;;11.60;1.98;;;;;;;13.95;49.63;98392.81;5003027;28;20061;-74
2022/05/15 08:56:13;;;;;;;15.30;2.00;;;;;;;14.85;47.62;98385.25;5004523;28;20421;-74
2022/05/15 08:58:48;;;;;;;6.63;1.70;;;;;;;16.05;45.17;98393.94;5006410;28;20181;-74
2022/05/15 09:01:18;;;;;;;8.38;2.08;;;;;;;16.97;41.80;98388.78;5004839;28;20054;-74
2022/05/15 09:03:44;;;;;;;6.50;1.60;;;;;;;17.70;39.75;98390.66;5005992;28;20038;-74
2022/05/15 09:06:28;;;;;;;8.13;2.05;;;;;;;17.80;39.78;98389.34;5003435;28;20096;-73
2022/05/15 09:09:06;;;;;;;5.78;1.80;;;;;;;17.41;40.16;98396.25;5001773;28;20105;-74
2022/05/15 09:11:54;;;;;;;6.35;1.80;;;;;;;16.92;40.98;98405.56;5004418;28;20054;-74
2022/05/15 09:14:40;;;;;;;7.60;1.80;;;;;;;16.30;41.83;98430.56;5003186;28;20610;-74
2022/05/15 09:17:16;;;;;;;17.13;2.47;;;;;;;15.43;46.02;98444.28;5002412;28;20057;-74
2022/05/15 09:19:42;;;;;;;16.08;2.75;;;;;;;14.35;50.73;98461.16;5004466;28;20060;-74
2022/05/15 09:22:13;;;;;;;14.07;3.05;;;;;;;13.17;55.20;98456.69;5001862;28;20120;-75
2022/05/15 09:24:45;;;;;;;20.67;3.40;;;;;;;12.48;60.27;98488.44;5008001;28;20425;-74
2022/05/15 09:27:14;;;;;;;11.73;2.67;;;;;;;11.73;61.96;98491.88;5002521;28;20132;-74
2022/05/15 09:29:41;;;;;;;22.60;3.65;;;;;;;11.24;67.40;98492.53;5002640;28;20058;-75
2022/05/15 09:32:25;;;;;;;15.25;3.03;;;;;;;10.94;69.41;98486.69;5003642;28;20049;-75
2022/05/15 09:34:51;;;;;;;13.82;3.17;;;;;;;10.88;68.62;98483.25;5004425;28;20044;-75
2022/05/15 09:40:12;;;;;;;13.80;4.55;;;;;;;11.19;67.39;98488.00;4993739;28;20081;-75
2022/05/15 09:45:54;;;;;;;15.75;3.50;;;;;;;11.63;65.22;98452.72;5006746;28;20057;-74
2022/05/15 09:48:23;;;;;;;12.10;2.58;;;;;;;11.81;63.64;98458.25;5005856;28;20065;-74
2022/05/15 09:50:58;;;;;;;13.60;2.50;;;;;;;12.01;63.39;98443.19;5003552;28;20053;-74
2022/05/15 09:53:31;;;;;;;9.48;2.40;;;;;;;12.39;61.31;98436.34;5016567;28;20048;-74
2022/05/15 09:55:59;;;;;;;7.45;2.28;;;;;;;12.85;59.93;98427.81;5025546;28;20053;-71
2022/05/15 09:58:34;;;;;;;9.20;2.78;;;;;;;13.61;57.72;98431.13;5022077;28;20517;-72
2022/05/15 10:01:18;;;;;;;9.10;2.20;;;;;;;14.48;54.56;98425.50;5015972;28;20049;-71
2022/05/15 10:03:49;;;;;;;12.55;3.22;;;;;;;15.10;53.29;98431.31;5022623;28;20496;-72
2022/05/15 10:06:22;;;;;;;8.55;2.40;;;;;;;15.93;51.98;98428.66;5025857;28;20041;-72
2022/05/15 10:09:11;;;;;;;11.35;2.90;;;;;;;16.33;51.04;98423.56;5027780;28;20140;-72
2022/05/15 10:11:41;;;;;;;10.27;3.53;;;;;;;16.37;49.80;98427.22;5027839;28;20068;-72
2022/05/15 10:14:20;;;;;;;13.80;3.08;;;;;;;16.30;49.71;98409.31;5007947;28;20048;-72
2022/05/15 10:16:51;;;;;;;10.02;2.60;;;;;;;16.51;49.00;98419.38;5003051;28;20145;-72
2022/05/15 10:19:24;;;;;;;14.90;3.08;;;;;;;16.96;47.57;98416.72;5005663;28;20061;-72
2022/05/15 10:21:56;;;;;;;10.15;3.13;;;;;;;18.97;43.08;98410.06;5007385;28;20096;-72
2022/05/15 10:24:27;;;;;;;9.25;3.15;;;;;;;21.19;39.47;98409.56;5004815;28;20145;-72
2022/05/15 10:27:02;;;;;;;14.70;4.07;;;;;;;23.17;35.70;98405.75;5006657;28;20069;-72
2022/05/15 10:29:36;;;;;;;15.68;3.55;;;;;;;24.27;33.39;98406.66;5020030;28;20054;-72
2022/05/15 10:32:12;;;;;;;14.00;3.70;;;;;;;24.95;32.55;98405.66;4988687;28;20045;-73
2022/05/15 10:34:38;;;;;;;13.15;4.07;;;;;;;25.42;30.35;98402.63;5006039;28;20046;-72
2022/05/15 10:37:17;;;;;;;9.35;2.22;;;;;;;25.70;28.39;98403.66;5004265;28;20053;-72
2022/05/15 10:39:57;;;;;;;9.68;2.30;;;;;;;25.69;28.02;98409.66;5004933;28;20061;-72
2022/05/15 10:42:30;;;;;;;7.28;2.28;;;;;;;25.28;29.03;98400.69;5003872;28;20060;-72
2022/05/15 10:45:06;;;;;;;11.05;2.83;;;;;;;25.41;28.47;98395.44;5022044;28;20513;-72
2022/05/15 10:47:50;;;;;;;7.13;2.25;;;;;;;25.74;25.47;98393.22;5007854;28;20060;-72
2022/05/15 10:50:24;;;;;;;10.52;2.63;;;;;;;26.44;24.14;98380.19;5006763;28;20112;-74
2022/05/15 10:57:21;;;;;;;8.27;2.08;;;;;;;26.35;23.77;98377.06;5021950;28;20237;-72
2022/05/15 10:59:01;;;;;;;8.45;2.35;;;;;;;24.82;26.93;98390.53;5005381;28;20050;-71
2022/05/15 11:01:36;;;;;;;6.90;2.13;;;;;;;25.30;25.46;98386.31;5007255;28;20084;-71
2022/05/15 11:04:12;;;;;;;5.35;2.05;;;;;;;25.51;25.33;98392.97;5002796;28;20232;-72
2022/05/15 11:06:58;;;;;;;7.07;2.05;;;;;;;25.73;24.34;98399.22;5004428;28;20453;-73
2022/05/15 11:09:33;;;;;;;5.88;1.95;;;;;;;25.54;24.32;98390.16;5020699;28;20053;-73
2022/05/15 11:12:10;;;;;;;5.03;1.80;;;;;;;25.63;23.97;98401.69;5004596;28;20401;-74
2022/05/15 11:14:48;;;;;;;7.60;2.08;;;;;;;25.10;24.36;98392.41;5004306;28;20062;-74
2022/05/15 11:17:22;;;;;;;9.38;1.90;;;;;;;24.64;25.45;98395.00;5004532;28;20084;-74
2022/05/15 11:19:51;;;;;;;10.10;2.10;;;;;;;24.46;25.81;98409.00;5006672;28;20085;-75
2022/05/15 11:22:31;;;;;;;9.68;2.00;;;;;;;23.98;26.25;98399.09;5005171;28;20116;-71
2022/05/15 11:25:04;;;;;;;8.60;2.20;;;;;;;23.71;26.86;98404.25;5006231;28;20133;-72
2022/05/15 11:27:40;;;;;;;10.85;2.15;;;;;;;24.05;26.16;98401.13;5020611;28;20041;-72
2022/05/15 11:30:12;;;;;;;6.65;2.28;;;;;;;24.67;25.33;98396.19;5012165;28;20054;-75
2022/05/15 11:32:41;;;;;;;8.55;2.75;;;;;;;25.24;24.31;98396.34;4992034;28;20429;-76
2022/05/15 11:35:27;;;;;;;9.45;2.40;;;;;;;25.49;23.32;98390.63;5010515;28;20132;-72
2022/05/15 11:38:10;;;;;;;8.68;2.60;;;;;;;25.78;22.41;98396.00;5008185;28;20045;-72
2022/05/15 11:40:39;;;;;;;9.40;2.20;;;;;;;26.66;21.67;98391.13;5026106;28;20058;-72
2022/05/15 11:43:34;;;;;;;10.90;2.60;;;;;;;27.80;20.21;98391.19;5023550;28;20517;-72
2022/05/15 11:46:02;;;;;;;9.57;2.20;;;;;;;28.33;19.17;98379.44;5006131;28;20509;-72
2022/05/15 11:48:31;;;;;;;6.32;2.08;;;;;;;28.72;19.35;98384.31;4990002;28;20077;-75
2022/05/15 11:51:02;;;;;;;4.63;1.70;;;;;;;28.51;19.13;98376.28;5023166;28;20050;-75
2022/05/15 11:53:30;;;;;;;6.88;2.20;;;;;;;28.68;19.60;98382.78;5021775;28;20100;-75
2022/05/15 11:55:59;;;;;;;7.32;2.15;;;;;;;29.23;19.12;98380.44;5010403;28;20045;-75
2022/05/15 11:58:34;;;;;;;8.32;2.65;;;;;;;29.53;17.76;98383.38;5003376;28;20054;-74
2022/05/15 12:01:07;;;;;;;8.88;2.25;;;;;;;30.07;17.51;98390.50;5004371;28;20081;-75
2022/05/15 12:03:55;;;;;;;8.57;3.05;;;;;;;30.46;17.34;98378.63;5003440;28;20050;-75